JBU2760 TNCM-KFLL
Flight info
| Callsign | JBU2760 |
|---|---|
| Flight time | 2h 51m |
| Altitude | 34000 |
| Route | PJM B520 STT RTE6 SJU DCT ACONY Y280 SAPPO Y399 ZQA OLAHS3 |
| Aircraft | A320/M-SDE3FGHIRWY/LB1 |
Departure
| Time | 2026-05-07 18:30 |
|---|---|
| Airport | Princess Juliana International Airport (TNCM) |
Arrival
| Time | 2026-05-07 21:21 |
|---|---|
| Airport | Fort Lauderdale Hollywood International Airport (KFLL) |
| Time | Latitude | Longitude | Altitude | Speed | Heading |
|---|---|---|---|---|---|
| 2026-05-07 17:52 | 18.04355 | -63.11229 | 29 ft | 0 kts | 352° |
| 2026-05-07 18:01 | 18.04355 | -63.11228 | 29 ft | 0 kts | 352° |
| 2026-05-07 18:06 | 18.04354 | -63.11228 | 29 ft | 0 kts | 352° |
| 2026-05-07 18:20 | 18.04333 | -63.11225 | 29 ft | 3 kts | 352° |
| 2026-05-07 18:20 | 18.04309 | -63.11222 | 29 ft | 3 kts | 352° |
| 2026-05-07 18:21 | 18.04292 | -63.11219 | 29 ft | 3 kts | 352° |
| 2026-05-07 18:21 | 18.04268 | -63.11216 | 29 ft | 3 kts | 352° |
| 2026-05-07 18:21 | 18.04264 | -63.11215 | 29 ft | 0 kts | 352° |
| 2026-05-07 18:24 | 18.04267 | -63.11218 | 29 ft | 2 kts | 329° |
| 2026-05-07 18:24 | 18.04275 | -63.11250 | 29 ft | 7 kts | 265° |
| 2026-05-07 18:25 | 18.04251 | -63.11315 | 29 ft | 11 kts | 249° |
| 2026-05-07 18:25 | 18.04234 | -63.11399 | 29 ft | 13 kts | 261° |
| 2026-05-07 18:25 | 18.04207 | -63.11493 | 28 ft | 14 kts | 238° |
| 2026-05-07 18:25 | 18.04140 | -63.11582 | 28 ft | 16 kts | 232° |
| 2026-05-07 18:26 | 18.04071 | -63.11685 | 28 ft | 18 kts | 243° |
| 2026-05-07 18:26 | 18.04046 | -63.11814 | 27 ft | 19 kts | 261° |
| 2026-05-07 18:26 | 18.04027 | -63.11900 | 28 ft | 0 kts | 248° |
| 2026-05-07 18:27 | 18.04027 | -63.11901 | 28 ft | 0 kts | 248° |
| 2026-05-07 18:28 | 18.04025 | -63.11905 | 28 ft | 3 kts | 243° |
| 2026-05-07 18:28 | 18.04003 | -63.11939 | 28 ft | 9 kts | 231° |
| 2026-05-07 18:28 | 18.03947 | -63.11962 | 27 ft | 3 kts | 155° |
| 2026-05-07 18:28 | 18.03943 | -63.11934 | 28 ft | 0 kts | 81° |
| 2026-05-07 18:29 | 18.03957 | -63.11839 | 28 ft | 49 kts | 81° |
| 2026-05-07 18:29 | 18.04052 | -63.11179 | 29 ft | 129 kts | 81° |
| 2026-05-07 18:29 | 18.04203 | -63.10125 | 443 ft | 154 kts | 84° |
| 2026-05-07 18:30 | 18.04055 | -63.08955 | 1099 ft | 169 kts | 116° |
| 2026-05-07 18:30 | 18.03173 | -63.08127 | 1957 ft | 175 kts | 158° |
| 2026-05-07 18:30 | 18.01992 | -63.08128 | 2693 ft | 175 kts | 192° |
| 2026-05-07 18:30 | 18.00758 | -63.08376 | 3039 ft | 190 kts | 180° |
| 2026-05-07 18:31 | 17.99358 | -63.08365 | 3281 ft | 214 kts | 174° |
| 2026-05-07 18:31 | 17.97786 | -63.08290 | 3610 ft | 238 kts | 175° |
| 2026-05-07 18:31 | 17.96047 | -63.08221 | 4011 ft | 262 kts | 178° |
| 2026-05-07 18:31 | 17.94203 | -63.08502 | 4688 ft | 275 kts | 197° |
| 2026-05-07 18:32 | 17.92502 | -63.09461 | 5480 ft | 282 kts | 219° |
| 2026-05-07 18:32 | 17.91203 | -63.11016 | 6261 ft | 287 kts | 240° |
| 2026-05-07 18:32 | 17.90523 | -63.12985 | 7038 ft | 289 kts | 263° |
| 2026-05-07 18:32 | 17.90593 | -63.15080 | 7837 ft | 288 kts | 285° |
| 2026-05-07 18:33 | 17.91328 | -63.17031 | 8653 ft | 288 kts | 296° |
| 2026-05-07 18:33 | 17.92171 | -63.18942 | 9468 ft | 289 kts | 296° |
| 2026-05-07 18:33 | 17.93016 | -63.20858 | 10204 ft | 293 kts | 296° |
| 2026-05-07 18:33 | 17.93902 | -63.22868 | 10430 ft | 314 kts | 296° |
| 2026-05-07 18:34 | 17.94845 | -63.25010 | 10741 ft | 329 kts | 295° |
| 2026-05-07 18:34 | 17.95813 | -63.27213 | 11289 ft | 334 kts | 296° |
| 2026-05-07 18:34 | 17.96794 | -63.29448 | 11904 ft | 338 kts | 296° |
| 2026-05-07 18:34 | 17.97785 | -63.31699 | 12526 ft | 341 kts | 296° |
| 2026-05-07 18:35 | 17.98787 | -63.33968 | 13145 ft | 344 kts | 296° |
| 2026-05-07 18:35 | 17.99799 | -63.36260 | 13763 ft | 347 kts | 296° |
| 2026-05-07 18:35 | 18.00817 | -63.38571 | 14309 ft | 350 kts | 296° |
| 2026-05-07 18:35 | 18.01840 | -63.40901 | 14862 ft | 352 kts | 296° |
| 2026-05-07 18:36 | 18.02862 | -63.43239 | 15417 ft | 355 kts | 296° |
| 2026-05-07 18:36 | 18.03896 | -63.45605 | 15966 ft | 357 kts | 296° |
| 2026-05-07 18:36 | 18.04936 | -63.47986 | 16518 ft | 360 kts | 296° |
| 2026-05-07 18:36 | 18.05984 | -63.50387 | 17066 ft | 362 kts | 296° |
| 2026-05-07 18:37 | 18.07041 | -63.52805 | 17629 ft | 365 kts | 296° |
| 2026-05-07 18:37 | 18.08101 | -63.55236 | 18186 ft | 367 kts | 296° |
| 2026-05-07 18:37 | 18.09171 | -63.57685 | 18687 ft | 370 kts | 296° |
| 2026-05-07 18:37 | 18.10252 | -63.60154 | 19164 ft | 373 kts | 296° |
| 2026-05-07 18:38 | 18.11341 | -63.62639 | 19641 ft | 376 kts | 296° |
| 2026-05-07 18:38 | 18.12434 | -63.65146 | 20128 ft | 379 kts | 295° |
| 2026-05-07 18:38 | 18.13280 | -63.67791 | 20609 ft | 385 kts | 285° |
| 2026-05-07 18:38 | 18.13769 | -63.70569 | 21083 ft | 388 kts | 282° |
| 2026-05-07 18:39 | 18.14232 | -63.73339 | 21552 ft | 392 kts | 282° |
| 2026-05-07 18:39 | 18.14706 | -63.76171 | 21998 ft | 395 kts | 282° |
| 2026-05-07 18:39 | 18.15188 | -63.79031 | 22452 ft | 399 kts | 282° |
| 2026-05-07 18:39 | 18.15674 | -63.81913 | 22937 ft | 402 kts | 282° |
| 2026-05-07 18:40 | 18.16164 | -63.84818 | 23387 ft | 405 kts | 282° |
| 2026-05-07 18:40 | 18.16659 | -63.87747 | 23800 ft | 408 kts | 282° |
| 2026-05-07 18:40 | 18.17156 | -63.90696 | 24180 ft | 411 kts | 282° |
| 2026-05-07 18:40 | 18.17656 | -63.93669 | 24566 ft | 413 kts | 282° |
| 2026-05-07 18:41 | 18.18158 | -63.96659 | 24948 ft | 416 kts | 283° |
| 2026-05-07 18:41 | 18.18662 | -63.99664 | 25323 ft | 418 kts | 283° |
| 2026-05-07 18:41 | 18.19167 | -64.02682 | 25695 ft | 421 kts | 283° |
| 2026-05-07 18:41 | 18.19674 | -64.05721 | 26053 ft | 423 kts | 283° |
| 2026-05-07 18:42 | 18.20187 | -64.08783 | 26397 ft | 426 kts | 283° |
| 2026-05-07 18:42 | 18.20702 | -64.11862 | 26753 ft | 429 kts | 283° |
| 2026-05-07 18:42 | 18.21217 | -64.14960 | 27097 ft | 431 kts | 283° |
| 2026-05-07 18:42 | 18.21733 | -64.18073 | 27456 ft | 433 kts | 283° |
| 2026-05-07 18:43 | 18.22253 | -64.21206 | 27800 ft | 436 kts | 283° |
| 2026-05-07 18:43 | 18.22771 | -64.24337 | 28148 ft | 438 kts | 283° |
| 2026-05-07 18:43 | 18.23297 | -64.27505 | 28497 ft | 440 kts | 283° |
| 2026-05-07 18:43 | 18.23828 | -64.30687 | 28844 ft | 443 kts | 284° |
| 2026-05-07 18:44 | 18.24354 | -64.33850 | 29184 ft | 445 kts | 284° |
| 2026-05-07 18:44 | 18.24888 | -64.37065 | 29530 ft | 447 kts | 284° |
| 2026-05-07 18:44 | 18.25418 | -64.40291 | 29893 ft | 449 kts | 284° |
| 2026-05-07 18:44 | 18.26008 | -64.43518 | 30216 ft | 448 kts | 290° |
| 2026-05-07 18:45 | 18.27183 | -64.46510 | 30496 ft | 440 kts | 304° |
| 2026-05-07 18:45 | 18.28739 | -64.49293 | 30789 ft | 442 kts | 305° |
| 2026-05-07 18:45 | 18.30319 | -64.52081 | 31071 ft | 443 kts | 305° |
| 2026-05-07 18:45 | 18.31905 | -64.54863 | 31448 ft | 442 kts | 305° |
| 2026-05-07 18:46 | 18.33485 | -64.57628 | 31878 ft | 440 kts | 305° |
| 2026-05-07 18:46 | 18.35061 | -64.60390 | 32289 ft | 439 kts | 304° |
| 2026-05-07 18:46 | 18.36627 | -64.63146 | 32678 ft | 439 kts | 304° |
| 2026-05-07 18:46 | 18.38190 | -64.65904 | 33076 ft | 438 kts | 304° |
| 2026-05-07 18:47 | 18.39746 | -64.68661 | 33478 ft | 437 kts | 304° |
| 2026-05-07 18:47 | 18.41295 | -64.71408 | 33860 ft | 437 kts | 304° |
| 2026-05-07 18:47 | 18.42850 | -64.74161 | 34036 ft | 437 kts | 304° |
| 2026-05-07 18:48 | 18.45925 | -64.79594 | 34070 ft | 429 kts | 304° |
| 2026-05-07 18:48 | 18.48977 | -64.84989 | 34067 ft | 428 kts | 304° |
| 2026-05-07 18:49 | 18.52000 | -64.90350 | 34073 ft | 428 kts | 304° |
| 2026-05-07 18:49 | 18.55047 | -64.95742 | 34073 ft | 428 kts | 304° |
| 2026-05-07 18:50 | 18.58096 | -65.01141 | 34063 ft | 428 kts | 304° |
| 2026-05-07 18:50 | 18.61129 | -65.06536 | 34065 ft | 429 kts | 304° |
| 2026-05-07 18:51 | 18.64170 | -65.11946 | 34064 ft | 429 kts | 304° |
| 2026-05-07 18:51 | 18.67216 | -65.17357 | 34065 ft | 429 kts | 304° |
| 2026-05-07 18:52 | 18.70262 | -65.22778 | 34068 ft | 429 kts | 304° |
| 2026-05-07 18:52 | 18.73300 | -65.28198 | 34072 ft | 429 kts | 304° |
| 2026-05-07 18:53 | 18.76339 | -65.33624 | 34058 ft | 430 kts | 304° |
| 2026-05-07 18:53 | 18.79391 | -65.39057 | 34057 ft | 431 kts | 304° |
| 2026-05-07 18:54 | 18.82444 | -65.44504 | 34063 ft | 431 kts | 304° |
| 2026-05-07 18:54 | 18.85494 | -65.49956 | 34067 ft | 431 kts | 304° |
| 2026-05-07 18:55 | 18.88543 | -65.55417 | 34071 ft | 432 kts | 304° |
| 2026-05-07 18:55 | 18.91569 | -65.60845 | 34070 ft | 432 kts | 304° |
| 2026-05-07 18:56 | 18.94617 | -65.66310 | 34064 ft | 431 kts | 304° |
| 2026-05-07 18:56 | 18.97662 | -65.71770 | 34072 ft | 431 kts | 304° |
| 2026-05-07 18:57 | 19.00699 | -65.77217 | 34068 ft | 431 kts | 304° |
| 2026-05-07 18:57 | 19.03736 | -65.82676 | 34070 ft | 430 kts | 304° |
| 2026-05-07 18:58 | 19.06767 | -65.88132 | 34071 ft | 430 kts | 304° |
| 2026-05-07 18:58 | 19.09798 | -65.93588 | 34064 ft | 430 kts | 304° |
| 2026-05-07 18:59 | 19.12824 | -65.99036 | 34070 ft | 429 kts | 304° |
| 2026-05-07 18:59 | 19.15845 | -66.04484 | 34086 ft | 429 kts | 304° |
| 2026-05-07 19:00 | 19.18830 | -66.09889 | 34089 ft | 427 kts | 304° |
| 2026-05-07 19:00 | 19.21819 | -66.15312 | 34086 ft | 425 kts | 304° |
| 2026-05-07 19:01 | 19.24803 | -66.20707 | 34086 ft | 424 kts | 305° |
| 2026-05-07 19:01 | 19.27791 | -66.26098 | 34078 ft | 424 kts | 305° |
| 2026-05-07 19:02 | 19.30736 | -66.31422 | 34084 ft | 422 kts | 305° |
| 2026-05-07 19:02 | 19.33686 | -66.36785 | 34080 ft | 421 kts | 305° |
| 2026-05-07 19:03 | 19.36633 | -66.42135 | 34079 ft | 420 kts | 305° |
| 2026-05-07 19:03 | 19.39576 | -66.47482 | 34074 ft | 420 kts | 305° |
| 2026-05-07 19:04 | 19.42510 | -66.52822 | 34076 ft | 419 kts | 305° |
| 2026-05-07 19:04 | 19.45446 | -66.58155 | 34058 ft | 419 kts | 305° |
| 2026-05-07 19:05 | 19.48376 | -66.63505 | 34057 ft | 420 kts | 305° |
| 2026-05-07 19:05 | 19.51310 | -66.68853 | 34061 ft | 420 kts | 305° |
| 2026-05-07 19:06 | 19.54229 | -66.74170 | 34066 ft | 420 kts | 305° |
| 2026-05-07 19:06 | 19.58626 | -66.82212 | 34060 ft | 421 kts | 306° |
| 2026-05-07 19:07 | 19.61567 | -66.87588 | 34055 ft | 421 kts | 306° |
| 2026-05-07 19:07 | 19.64509 | -66.92976 | 34040 ft | 423 kts | 306° |
| 2026-05-07 19:08 | 19.67460 | -66.98383 | 34038 ft | 424 kts | 306° |
| 2026-05-07 19:08 | 19.70414 | -67.03807 | 34037 ft | 425 kts | 306° |
| 2026-05-07 19:09 | 19.72871 | -67.08316 | 34041 ft | 426 kts | 306° |
| 2026-05-07 19:09 | 19.75829 | -67.13757 | 34046 ft | 426 kts | 306° |
| 2026-05-07 19:10 | 19.78793 | -67.19207 | 34059 ft | 426 kts | 306° |
| 2026-05-07 19:10 | 19.81764 | -67.24660 | 34040 ft | 427 kts | 307° |
| 2026-05-07 19:11 | 19.84732 | -67.30133 | 34041 ft | 428 kts | 307° |
| 2026-05-07 19:11 | 19.87709 | -67.35625 | 34046 ft | 429 kts | 307° |
| 2026-05-07 19:12 | 19.90670 | -67.41094 | 34053 ft | 430 kts | 307° |
| 2026-05-07 19:12 | 19.93653 | -67.46605 | 34060 ft | 430 kts | 307° |
| 2026-05-07 19:13 | 19.96638 | -67.52125 | 34065 ft | 431 kts | 307° |
| 2026-05-07 19:13 | 19.99620 | -67.57633 | 34052 ft | 431 kts | 307° |
| 2026-05-07 19:14 | 20.02614 | -67.63167 | 34048 ft | 432 kts | 307° |
| 2026-05-07 19:14 | 20.05603 | -67.68727 | 34054 ft | 433 kts | 307° |
| 2026-05-07 19:15 | 20.08599 | -67.74295 | 34062 ft | 433 kts | 307° |
| 2026-05-07 19:15 | 20.11579 | -67.79824 | 34066 ft | 433 kts | 307° |
| 2026-05-07 19:16 | 20.14572 | -67.85403 | 34069 ft | 434 kts | 307° |
| 2026-05-07 19:16 | 20.17567 | -67.90968 | 34070 ft | 433 kts | 307° |
| 2026-05-07 19:17 | 20.20552 | -67.96536 | 34067 ft | 434 kts | 307° |
| 2026-05-07 19:17 | 20.23539 | -68.02118 | 34068 ft | 433 kts | 307° |
| 2026-05-07 19:18 | 20.26523 | -68.07698 | 34067 ft | 433 kts | 307° |
| 2026-05-07 19:18 | 20.29508 | -68.13278 | 34067 ft | 433 kts | 307° |
| 2026-05-07 19:19 | 20.32489 | -68.18846 | 34065 ft | 433 kts | 307° |
| 2026-05-07 19:19 | 20.35471 | -68.24429 | 34053 ft | 433 kts | 307° |
| 2026-05-07 19:20 | 20.38428 | -68.29978 | 34061 ft | 433 kts | 307° |
| 2026-05-07 19:20 | 20.41409 | -68.35567 | 34059 ft | 434 kts | 307° |
| 2026-05-07 19:21 | 20.44387 | -68.41155 | 34060 ft | 434 kts | 307° |
| 2026-05-07 19:21 | 20.47422 | -68.46697 | 34057 ft | 433 kts | 308° |
| 2026-05-07 19:22 | 20.50505 | -68.52222 | 34057 ft | 433 kts | 308° |
| 2026-05-07 19:22 | 20.53568 | -68.57755 | 34061 ft | 433 kts | 307° |
| 2026-05-07 19:23 | 20.56610 | -68.63298 | 34075 ft | 432 kts | 307° |
| 2026-05-07 19:23 | 20.59649 | -68.68819 | 34076 ft | 431 kts | 307° |
| 2026-05-07 19:24 | 20.62665 | -68.74295 | 34073 ft | 431 kts | 307° |
| 2026-05-07 19:24 | 20.65692 | -68.79816 | 34071 ft | 431 kts | 307° |
| 2026-05-07 19:25 | 20.68721 | -68.85345 | 34066 ft | 430 kts | 307° |
| 2026-05-07 19:25 | 20.71750 | -68.90866 | 34054 ft | 431 kts | 307° |
| 2026-05-07 19:26 | 20.74779 | -68.96389 | 34056 ft | 431 kts | 307° |
| 2026-05-07 19:26 | 20.77795 | -69.01916 | 34058 ft | 431 kts | 307° |
| 2026-05-07 19:27 | 20.80824 | -69.07457 | 34059 ft | 431 kts | 307° |
| 2026-05-07 19:27 | 20.83847 | -69.13001 | 34058 ft | 432 kts | 307° |
| 2026-05-07 19:28 | 20.86854 | -69.18519 | 34056 ft | 432 kts | 306° |
| 2026-05-07 19:28 | 20.89872 | -69.24066 | 34040 ft | 433 kts | 306° |
| 2026-05-07 19:29 | 20.92901 | -69.29632 | 34040 ft | 433 kts | 306° |
| 2026-05-07 19:29 | 20.95938 | -69.35211 | 34042 ft | 434 kts | 306° |
| 2026-05-07 19:30 | 20.98970 | -69.40799 | 34042 ft | 434 kts | 306° |
| 2026-05-07 19:30 | 21.02008 | -69.46385 | 34045 ft | 434 kts | 306° |
| 2026-05-07 19:31 | 21.05036 | -69.51970 | 34051 ft | 434 kts | 306° |
| 2026-05-07 19:31 | 21.08063 | -69.57568 | 34039 ft | 435 kts | 305° |
| 2026-05-07 19:32 | 21.11077 | -69.63139 | 34044 ft | 435 kts | 305° |
| 2026-05-07 19:32 | 21.14112 | -69.68757 | 34050 ft | 436 kts | 305° |
| 2026-05-07 19:33 | 21.17142 | -69.74396 | 34054 ft | 436 kts | 305° |
| 2026-05-07 19:33 | 21.20170 | -69.80013 | 34055 ft | 436 kts | 305° |
| 2026-05-07 19:34 | 21.23184 | -69.85603 | 34057 ft | 436 kts | 305° |
| 2026-05-07 19:34 | 21.26240 | -69.91275 | 34050 ft | 437 kts | 305° |
| 2026-05-07 19:35 | 21.29252 | -69.96875 | 34052 ft | 437 kts | 305° |
| 2026-05-07 19:35 | 21.32288 | -70.02515 | 34064 ft | 437 kts | 305° |
| 2026-05-07 19:36 | 21.35322 | -70.08168 | 34056 ft | 437 kts | 305° |
| 2026-05-07 19:36 | 21.38339 | -70.13816 | 34057 ft | 437 kts | 304° |
| 2026-05-07 19:37 | 21.41357 | -70.19476 | 34069 ft | 437 kts | 305° |
| 2026-05-07 19:37 | 21.44383 | -70.25128 | 34069 ft | 436 kts | 304° |
| 2026-05-07 19:38 | 21.47402 | -70.30763 | 34072 ft | 435 kts | 304° |
| 2026-05-07 19:38 | 21.50408 | -70.36395 | 34069 ft | 434 kts | 304° |
| 2026-05-07 19:39 | 21.53401 | -70.42010 | 34068 ft | 434 kts | 304° |
| 2026-05-07 19:39 | 21.56396 | -70.47629 | 34063 ft | 433 kts | 304° |
| 2026-05-07 19:40 | 21.59359 | -70.53212 | 34069 ft | 433 kts | 303° |
| 2026-05-07 19:40 | 21.62338 | -70.58827 | 34064 ft | 432 kts | 302° |
| 2026-05-07 19:41 | 21.65315 | -70.64420 | 34068 ft | 431 kts | 302° |
| 2026-05-07 19:41 | 21.68285 | -70.70005 | 34074 ft | 430 kts | 302° |
| 2026-05-07 19:42 | 21.71242 | -70.75599 | 34068 ft | 430 kts | 302° |
| 2026-05-07 19:42 | 21.74174 | -70.81155 | 34066 ft | 429 kts | 302° |
| 2026-05-07 19:43 | 21.77127 | -70.86736 | 34069 ft | 429 kts | 302° |
| 2026-05-07 19:43 | 21.80080 | -70.92313 | 34055 ft | 429 kts | 301° |
| 2026-05-07 19:44 | 21.83019 | -70.97887 | 34053 ft | 429 kts | 301° |
| 2026-05-07 19:44 | 21.85956 | -71.03473 | 34055 ft | 429 kts | 301° |
| 2026-05-07 19:45 | 21.88874 | -71.09026 | 34057 ft | 429 kts | 301° |
| 2026-05-07 19:45 | 21.91816 | -71.14617 | 34071 ft | 429 kts | 301° |
| 2026-05-07 19:46 | 21.94753 | -71.20207 | 34067 ft | 429 kts | 301° |
| 2026-05-07 19:46 | 21.97683 | -71.25795 | 34067 ft | 429 kts | 301° |
| 2026-05-07 19:47 | 22.00620 | -71.31387 | 34061 ft | 429 kts | 301° |
| 2026-05-07 19:47 | 22.03545 | -71.36976 | 34068 ft | 428 kts | 301° |
| 2026-05-07 19:48 | 22.06475 | -71.42567 | 34068 ft | 428 kts | 301° |
| 2026-05-07 19:48 | 22.09394 | -71.48157 | 34067 ft | 427 kts | 301° |
| 2026-05-07 19:49 | 22.12303 | -71.53731 | 34067 ft | 427 kts | 301° |
| 2026-05-07 19:49 | 22.15193 | -71.59271 | 34057 ft | 426 kts | 302° |
| 2026-05-07 19:50 | 22.18097 | -71.64842 | 34061 ft | 426 kts | 302° |
| 2026-05-07 19:50 | 22.21001 | -71.70415 | 34063 ft | 426 kts | 302° |
| 2026-05-07 19:51 | 22.23895 | -71.75998 | 34062 ft | 425 kts | 302° |
| 2026-05-07 19:51 | 22.26781 | -71.81562 | 34061 ft | 425 kts | 302° |
| 2026-05-07 19:52 | 22.29647 | -71.87103 | 34063 ft | 425 kts | 302° |
| 2026-05-07 19:52 | 22.32533 | -71.92667 | 34057 ft | 424 kts | 302° |
| 2026-05-07 19:53 | 22.35414 | -71.98229 | 34064 ft | 424 kts | 302° |
| 2026-05-07 19:53 | 22.38290 | -72.03794 | 34065 ft | 423 kts | 302° |
| 2026-05-07 19:54 | 22.41163 | -72.09353 | 34071 ft | 423 kts | 302° |
| 2026-05-07 19:54 | 22.44028 | -72.14913 | 34073 ft | 423 kts | 302° |
| 2026-05-07 19:55 | 22.46864 | -72.20426 | 34069 ft | 422 kts | 302° |
| 2026-05-07 19:55 | 22.49719 | -72.25962 | 34063 ft | 421 kts | 302° |
| 2026-05-07 19:56 | 22.52571 | -72.31497 | 34066 ft | 421 kts | 302° |
| 2026-05-07 19:56 | 22.55422 | -72.37035 | 34066 ft | 421 kts | 302° |
| 2026-05-07 19:57 | 22.58256 | -72.42554 | 34066 ft | 421 kts | 301° |
| 2026-05-07 19:57 | 22.61092 | -72.48094 | 34065 ft | 420 kts | 301° |
| 2026-05-07 19:58 | 22.63927 | -72.53623 | 34061 ft | 420 kts | 301° |
| 2026-05-07 19:58 | 22.66738 | -72.59119 | 34063 ft | 420 kts | 301° |
| 2026-05-07 19:59 | 22.69556 | -72.64654 | 34060 ft | 420 kts | 301° |
| 2026-05-07 19:59 | 22.72370 | -72.70174 | 34062 ft | 419 kts | 301° |
| 2026-05-07 20:00 | 22.75190 | -72.75703 | 34065 ft | 419 kts | 301° |
| 2026-05-07 20:00 | 22.78006 | -72.81230 | 34067 ft | 419 kts | 301° |
| 2026-05-07 20:01 | 22.80815 | -72.86762 | 34068 ft | 418 kts | 301° |
| 2026-05-07 20:01 | 22.83615 | -72.92294 | 34067 ft | 418 kts | 301° |
| 2026-05-07 20:02 | 22.86411 | -72.97822 | 34061 ft | 418 kts | 301° |
| 2026-05-07 20:02 | 22.88734 | -73.02418 | 34066 ft | 418 kts | 301° |
| 2026-05-07 20:03 | 22.91526 | -73.07946 | 34065 ft | 418 kts | 301° |
| 2026-05-07 20:03 | 22.94785 | -73.14373 | 34064 ft | 418 kts | 301° |
| 2026-05-07 20:04 | 22.97567 | -73.19898 | 34067 ft | 418 kts | 301° |
| 2026-05-07 20:04 | 22.99889 | -73.24504 | 34069 ft | 418 kts | 301° |
| 2026-05-07 20:05 | 23.02685 | -73.30048 | 34069 ft | 418 kts | 301° |
| 2026-05-07 20:05 | 23.05470 | -73.35591 | 34062 ft | 418 kts | 300° |
| 2026-05-07 20:06 | 23.08244 | -73.41135 | 34061 ft | 418 kts | 300° |
| 2026-05-07 20:06 | 23.11021 | -73.46669 | 34061 ft | 418 kts | 300° |
| 2026-05-07 20:07 | 23.13800 | -73.52215 | 34056 ft | 418 kts | 300° |
| 2026-05-07 20:07 | 23.16579 | -73.57761 | 34057 ft | 418 kts | 300° |
| 2026-05-07 20:08 | 23.19350 | -73.63317 | 34063 ft | 418 kts | 300° |
| 2026-05-07 20:08 | 23.22126 | -73.68871 | 34061 ft | 418 kts | 300° |
| 2026-05-07 20:09 | 23.24900 | -73.74426 | 34065 ft | 418 kts | 300° |
| 2026-05-07 20:10 | 23.29055 | -73.82762 | 34062 ft | 417 kts | 300° |
| 2026-05-07 20:10 | 23.31802 | -73.88278 | 34064 ft | 417 kts | 300° |
| 2026-05-07 20:11 | 23.34566 | -73.93834 | 34066 ft | 417 kts | 300° |
| 2026-05-07 20:11 | 23.37326 | -73.99388 | 34067 ft | 417 kts | 300° |
| 2026-05-07 20:12 | 23.40087 | -74.04951 | 34057 ft | 417 kts | 300° |
| 2026-05-07 20:12 | 23.42837 | -74.10514 | 34056 ft | 417 kts | 300° |
| 2026-05-07 20:13 | 23.45584 | -74.16088 | 34052 ft | 417 kts | 300° |
| 2026-05-07 20:13 | 23.48343 | -74.21655 | 34052 ft | 417 kts | 300° |
| 2026-05-07 20:14 | 23.51094 | -74.27227 | 34057 ft | 417 kts | 300° |
| 2026-05-07 20:14 | 23.53837 | -74.32797 | 34055 ft | 417 kts | 300° |
| 2026-05-07 20:15 | 23.56579 | -74.38371 | 34049 ft | 417 kts | 299° |
| 2026-05-07 20:15 | 23.59320 | -74.43953 | 34056 ft | 417 kts | 299° |
| 2026-05-07 20:16 | 23.62071 | -74.49530 | 34057 ft | 417 kts | 299° |
| 2026-05-07 20:16 | 23.64788 | -74.55064 | 34060 ft | 417 kts | 299° |
| 2026-05-07 20:17 | 23.67519 | -74.60641 | 34064 ft | 417 kts | 299° |
| 2026-05-07 20:17 | 23.70245 | -74.66219 | 34061 ft | 417 kts | 299° |
| 2026-05-07 20:18 | 23.72977 | -74.71794 | 34063 ft | 417 kts | 299° |
| 2026-05-07 20:18 | 23.75707 | -74.77382 | 34064 ft | 417 kts | 299° |
| 2026-05-07 20:19 | 23.78421 | -74.82952 | 34059 ft | 417 kts | 299° |
| 2026-05-07 20:19 | 23.81139 | -74.88542 | 34060 ft | 417 kts | 299° |
| 2026-05-07 20:20 | 23.83858 | -74.94134 | 34064 ft | 417 kts | 299° |
| 2026-05-07 20:20 | 23.86579 | -74.99729 | 34065 ft | 417 kts | 299° |
| 2026-05-07 20:21 | 23.89299 | -75.05321 | 34065 ft | 417 kts | 299° |
| 2026-05-07 20:21 | 23.92016 | -75.10912 | 34058 ft | 417 kts | 299° |
| 2026-05-07 20:22 | 23.94712 | -75.16477 | 34058 ft | 417 kts | 299° |
| 2026-05-07 20:22 | 23.97423 | -75.22078 | 34059 ft | 417 kts | 299° |
| 2026-05-07 20:23 | 24.00129 | -75.27681 | 34061 ft | 417 kts | 299° |
| 2026-05-07 20:23 | 24.02836 | -75.33286 | 34062 ft | 417 kts | 299° |
| 2026-05-07 20:24 | 24.05544 | -75.38898 | 34061 ft | 417 kts | 298° |
| 2026-05-07 20:24 | 24.08248 | -75.44513 | 34060 ft | 417 kts | 298° |
| 2026-05-07 20:25 | 24.10950 | -75.50136 | 34061 ft | 417 kts | 298° |
| 2026-05-07 20:25 | 24.13651 | -75.55761 | 34065 ft | 417 kts | 298° |
| 2026-05-07 20:26 | 24.16352 | -75.61389 | 34067 ft | 417 kts | 298° |
| 2026-05-07 20:26 | 24.19037 | -75.66977 | 34066 ft | 417 kts | 298° |
| 2026-05-07 20:27 | 24.21736 | -75.72597 | 34065 ft | 417 kts | 298° |
| 2026-05-07 20:27 | 24.24423 | -75.78220 | 34063 ft | 417 kts | 298° |
| 2026-05-07 20:28 | 24.27109 | -75.83848 | 34060 ft | 416 kts | 298° |
| 2026-05-07 20:28 | 24.29790 | -75.89468 | 34060 ft | 416 kts | 298° |
| 2026-05-07 20:29 | 24.32471 | -75.95090 | 34055 ft | 416 kts | 298° |
| 2026-05-07 20:29 | 24.35149 | -76.00710 | 34058 ft | 416 kts | 298° |
| 2026-05-07 20:30 | 24.37821 | -76.06332 | 34063 ft | 415 kts | 298° |
| 2026-05-07 20:30 | 24.40471 | -76.11915 | 34067 ft | 415 kts | 298° |
| 2026-05-07 20:31 | 24.43128 | -76.17528 | 34063 ft | 414 kts | 298° |
| 2026-05-07 20:31 | 24.45783 | -76.23140 | 34061 ft | 414 kts | 298° |
| 2026-05-07 20:32 | 24.48438 | -76.28749 | 34063 ft | 414 kts | 298° |
| 2026-05-07 20:32 | 24.51086 | -76.34368 | 34062 ft | 414 kts | 298° |
| 2026-05-07 20:33 | 24.53737 | -76.39983 | 34062 ft | 414 kts | 298° |
| 2026-05-07 20:33 | 24.56387 | -76.45594 | 34064 ft | 414 kts | 298° |
| 2026-05-07 20:34 | 24.59017 | -76.51178 | 34058 ft | 414 kts | 298° |
| 2026-05-07 20:34 | 24.61661 | -76.56796 | 34058 ft | 414 kts | 298° |
| 2026-05-07 20:35 | 24.64302 | -76.62414 | 34057 ft | 414 kts | 298° |
| 2026-05-07 20:35 | 24.66937 | -76.68033 | 34056 ft | 414 kts | 298° |
| 2026-05-07 20:36 | 24.69566 | -76.73639 | 34058 ft | 413 kts | 298° |
| 2026-05-07 20:36 | 24.72199 | -76.79267 | 34057 ft | 413 kts | 298° |
| 2026-05-07 20:37 | 24.74824 | -76.84891 | 34066 ft | 413 kts | 297° |
| 2026-05-07 20:37 | 24.77452 | -76.90509 | 34065 ft | 412 kts | 297° |
| 2026-05-07 20:38 | 24.80074 | -76.96123 | 34060 ft | 412 kts | 297° |
| 2026-05-07 20:38 | 24.82659 | -77.01690 | 34060 ft | 411 kts | 297° |
| 2026-05-07 20:39 | 24.85260 | -77.07293 | 34058 ft | 411 kts | 297° |
| 2026-05-07 20:39 | 24.87864 | -77.12887 | 34059 ft | 411 kts | 297° |
| 2026-05-07 20:40 | 24.90465 | -77.18490 | 34059 ft | 410 kts | 297° |
| 2026-05-07 20:40 | 24.93063 | -77.24086 | 34060 ft | 410 kts | 297° |
| 2026-05-07 20:41 | 24.95656 | -77.29687 | 34068 ft | 410 kts | 297° |
| 2026-05-07 20:41 | 24.98238 | -77.35291 | 34071 ft | 410 kts | 297° |
| 2026-05-07 20:42 | 25.00821 | -77.40893 | 34079 ft | 410 kts | 297° |
| 2026-05-07 20:42 | 25.03358 | -77.46528 | 34078 ft | 410 kts | 295° |
| 2026-05-07 20:43 | 25.05564 | -77.52285 | 34070 ft | 410 kts | 292° |
| 2026-05-07 20:43 | 25.07658 | -77.58137 | 34070 ft | 410 kts | 292° |
| 2026-05-07 20:44 | 25.09790 | -77.63973 | 34066 ft | 410 kts | 293° |
| 2026-05-07 20:44 | 25.11955 | -77.69781 | 34034 ft | 407 kts | 293° |
| 2026-05-07 20:44 | 25.13028 | -77.72651 | 33780 ft | 402 kts | 293° |
| 2026-05-07 20:45 | 25.14090 | -77.75488 | 33510 ft | 398 kts | 293° |
| 2026-05-07 20:45 | 25.15142 | -77.78302 | 33255 ft | 395 kts | 293° |
| 2026-05-07 20:45 | 25.16183 | -77.81090 | 32847 ft | 391 kts | 293° |
| 2026-05-07 20:45 | 25.17211 | -77.83855 | 32416 ft | 388 kts | 293° |
| 2026-05-07 20:46 | 25.18233 | -77.86605 | 31991 ft | 385 kts | 293° |
| 2026-05-07 20:46 | 25.19249 | -77.89334 | 31577 ft | 383 kts | 293° |
| 2026-05-07 20:46 | 25.20259 | -77.92046 | 31170 ft | 380 kts | 293° |
| 2026-05-07 20:46 | 25.21246 | -77.94705 | 30783 ft | 378 kts | 293° |
| 2026-05-07 20:47 | 25.22239 | -77.97384 | 30401 ft | 376 kts | 293° |
| 2026-05-07 20:47 | 25.23223 | -78.00050 | 30022 ft | 374 kts | 293° |
| 2026-05-07 20:47 | 25.24197 | -78.02689 | 29606 ft | 372 kts | 293° |
| 2026-05-07 20:47 | 25.25173 | -78.05327 | 29198 ft | 370 kts | 293° |
| 2026-05-07 20:48 | 25.26142 | -78.07948 | 28807 ft | 367 kts | 293° |
| 2026-05-07 20:48 | 25.27106 | -78.10556 | 28431 ft | 365 kts | 293° |
| 2026-05-07 20:48 | 25.28064 | -78.13155 | 28050 ft | 363 kts | 292° |
| 2026-05-07 20:48 | 25.29017 | -78.15734 | 27680 ft | 361 kts | 293° |
| 2026-05-07 20:49 | 25.29964 | -78.18297 | 27299 ft | 359 kts | 292° |
| 2026-05-07 20:49 | 25.30928 | -78.20839 | 26913 ft | 357 kts | 294° |
| 2026-05-07 20:49 | 25.31924 | -78.23347 | 26537 ft | 355 kts | 294° |
| 2026-05-07 20:49 | 25.32933 | -78.25830 | 26148 ft | 353 kts | 295° |
| 2026-05-07 20:50 | 25.33938 | -78.28288 | 25765 ft | 352 kts | 295° |
| 2026-05-07 20:50 | 25.34940 | -78.30745 | 25391 ft | 350 kts | 295° |
| 2026-05-07 20:50 | 25.35932 | -78.33193 | 25005 ft | 348 kts | 294° |
| 2026-05-07 20:50 | 25.36909 | -78.35630 | 24620 ft | 346 kts | 294° |
| 2026-05-07 20:51 | 25.37878 | -78.38058 | 24239 ft | 344 kts | 294° |
| 2026-05-07 20:51 | 25.38840 | -78.40474 | 23865 ft | 343 kts | 294° |
| 2026-05-07 20:51 | 25.39800 | -78.42882 | 23475 ft | 341 kts | 294° |
| 2026-05-07 20:51 | 25.40756 | -78.45277 | 23033 ft | 339 kts | 294° |
| 2026-05-07 20:52 | 25.41690 | -78.47632 | 22604 ft | 338 kts | 294° |
| 2026-05-07 20:52 | 25.42613 | -78.50014 | 22181 ft | 336 kts | 294° |
| 2026-05-07 20:52 | 25.43520 | -78.52382 | 21765 ft | 335 kts | 294° |
| 2026-05-07 20:52 | 25.44423 | -78.54753 | 21359 ft | 334 kts | 294° |
| 2026-05-07 20:53 | 25.45322 | -78.57114 | 20953 ft | 332 kts | 294° |
| 2026-05-07 20:53 | 25.46218 | -78.59466 | 20553 ft | 331 kts | 294° |
| 2026-05-07 20:53 | 25.47113 | -78.61809 | 20163 ft | 330 kts | 294° |
| 2026-05-07 20:53 | 25.48006 | -78.64139 | 19774 ft | 329 kts | 294° |
| 2026-05-07 20:54 | 25.48898 | -78.66467 | 19403 ft | 328 kts | 294° |
| 2026-05-07 20:54 | 25.49784 | -78.68782 | 19030 ft | 326 kts | 294° |
| 2026-05-07 20:54 | 25.50667 | -78.71093 | 18662 ft | 325 kts | 294° |
| 2026-05-07 20:54 | 25.51545 | -78.73393 | 18306 ft | 324 kts | 294° |
| 2026-05-07 20:55 | 25.52418 | -78.75674 | 17935 ft | 322 kts | 294° |
| 2026-05-07 20:55 | 25.53287 | -78.77948 | 17536 ft | 320 kts | 294° |
| 2026-05-07 20:55 | 25.54151 | -78.80212 | 17157 ft | 319 kts | 294° |
| 2026-05-07 20:55 | 25.55014 | -78.82473 | 16763 ft | 318 kts | 294° |
| 2026-05-07 20:56 | 25.55583 | -78.83963 | 16509 ft | 317 kts | 294° |
| 2026-05-07 20:56 | 25.56728 | -78.86964 | 16009 ft | 315 kts | 294° |
| 2026-05-07 20:56 | 25.57293 | -78.88444 | 15764 ft | 315 kts | 294° |
| 2026-05-07 20:56 | 25.58143 | -78.90675 | 15404 ft | 314 kts | 293° |
| 2026-05-07 20:57 | 25.58990 | -78.92897 | 15052 ft | 313 kts | 293° |
| 2026-05-07 20:57 | 25.59837 | -78.95115 | 14697 ft | 312 kts | 293° |
| 2026-05-07 20:57 | 25.60677 | -78.97325 | 14347 ft | 311 kts | 293° |
| 2026-05-07 20:57 | 25.61510 | -78.99521 | 14017 ft | 310 kts | 293° |
| 2026-05-07 20:58 | 25.62342 | -79.01714 | 13672 ft | 308 kts | 293° |
| 2026-05-07 20:58 | 25.63173 | -79.03898 | 13293 ft | 307 kts | 293° |
| 2026-05-07 20:58 | 25.63996 | -79.06078 | 12933 ft | 306 kts | 293° |
| 2026-05-07 20:58 | 25.64813 | -79.08251 | 12553 ft | 305 kts | 293° |
| 2026-05-07 20:59 | 25.65617 | -79.10392 | 12196 ft | 304 kts | 293° |
| 2026-05-07 20:59 | 25.66429 | -79.12554 | 11835 ft | 304 kts | 293° |
| 2026-05-07 20:59 | 25.67239 | -79.14713 | 11477 ft | 303 kts | 294° |
| 2026-05-07 20:59 | 25.68049 | -79.16869 | 11126 ft | 303 kts | 294° |
| 2026-05-07 21:00 | 25.68857 | -79.19022 | 10774 ft | 302 kts | 293° |
| 2026-05-07 21:00 | 25.69661 | -79.21173 | 10443 ft | 301 kts | 293° |
| 2026-05-07 21:00 | 25.70461 | -79.23313 | 10117 ft | 300 kts | 293° |
| 2026-05-07 21:00 | 25.71255 | -79.25445 | 10011 ft | 299 kts | 293° |
| 2026-05-07 21:01 | 25.72057 | -79.27593 | 10015 ft | 301 kts | 293° |
| 2026-05-07 21:01 | 25.72861 | -79.29738 | 10019 ft | 302 kts | 293° |
| 2026-05-07 21:01 | 25.73660 | -79.31887 | 9897 ft | 301 kts | 293° |
| 2026-05-07 21:01 | 25.74449 | -79.34037 | 9773 ft | 300 kts | 292° |
| 2026-05-07 21:02 | 25.75232 | -79.36180 | 9647 ft | 299 kts | 292° |
| 2026-05-07 21:02 | 25.76014 | -79.38317 | 9518 ft | 299 kts | 292° |
| 2026-05-07 21:02 | 25.76795 | -79.40451 | 9399 ft | 298 kts | 292° |
| 2026-05-07 21:02 | 25.77570 | -79.42565 | 9266 ft | 297 kts | 292° |
| 2026-05-07 21:03 | 25.78347 | -79.44686 | 9145 ft | 296 kts | 292° |
| 2026-05-07 21:03 | 25.79120 | -79.46802 | 9018 ft | 296 kts | 292° |
| 2026-05-07 21:03 | 25.79893 | -79.48915 | 8893 ft | 295 kts | 292° |
| 2026-05-07 21:03 | 25.80666 | -79.51026 | 8639 ft | 295 kts | 292° |
| 2026-05-07 21:04 | 25.81441 | -79.53139 | 8231 ft | 296 kts | 292° |
| 2026-05-07 21:04 | 25.82200 | -79.55217 | 7945 ft | 293 kts | 292° |
| 2026-05-07 21:04 | 25.82976 | -79.57338 | 7557 ft | 293 kts | 292° |
| 2026-05-07 21:04 | 25.83726 | -79.59385 | 7283 ft | 289 kts | 292° |
| 2026-05-07 21:05 | 25.84481 | -79.61445 | 6955 ft | 287 kts | 292° |
| 2026-05-07 21:05 | 25.85247 | -79.63488 | 6645 ft | 285 kts | 292° |
| 2026-05-07 21:05 | 25.86024 | -79.65499 | 6342 ft | 283 kts | 294° |
| 2026-05-07 21:05 | 25.86850 | -79.67468 | 6060 ft | 279 kts | 295° |
| 2026-05-07 21:06 | 25.87689 | -79.69393 | 6007 ft | 276 kts | 295° |
| 2026-05-07 21:06 | 25.88532 | -79.71309 | 6013 ft | 276 kts | 295° |
| 2026-05-07 21:06 | 25.89373 | -79.73228 | 6013 ft | 277 kts | 295° |
| 2026-05-07 21:06 | 25.90207 | -79.75145 | 6014 ft | 275 kts | 295° |
| 2026-05-07 21:07 | 25.91035 | -79.77060 | 6011 ft | 275 kts | 295° |
| 2026-05-07 21:07 | 25.91858 | -79.78978 | 6012 ft | 275 kts | 295° |
| 2026-05-07 21:07 | 25.92679 | -79.80896 | 6012 ft | 274 kts | 295° |
| 2026-05-07 21:07 | 25.93493 | -79.82805 | 6013 ft | 274 kts | 295° |
| 2026-05-07 21:08 | 25.94304 | -79.84711 | 6012 ft | 273 kts | 295° |
| 2026-05-07 21:08 | 25.95116 | -79.86621 | 6012 ft | 274 kts | 295° |
| 2026-05-07 21:08 | 25.95926 | -79.88528 | 6008 ft | 272 kts | 295° |
| 2026-05-07 21:08 | 25.96731 | -79.90427 | 6008 ft | 271 kts | 295° |
| 2026-05-07 21:09 | 25.97524 | -79.92301 | 6008 ft | 271 kts | 295° |
| 2026-05-07 21:09 | 25.98328 | -79.94195 | 6007 ft | 271 kts | 295° |
| 2026-05-07 21:09 | 25.99347 | -79.95954 | 6004 ft | 273 kts | 310° |
| 2026-05-07 21:09 | 26.00625 | -79.97528 | 6004 ft | 274 kts | 311° |
| 2026-05-07 21:10 | 26.01904 | -79.99101 | 6002 ft | 274 kts | 311° |
| 2026-05-07 21:10 | 26.03182 | -80.00679 | 6000 ft | 274 kts | 311° |
| 2026-05-07 21:10 | 26.04455 | -80.02251 | 6001 ft | 274 kts | 311° |
| 2026-05-07 21:10 | 26.05729 | -80.03824 | 6000 ft | 274 kts | 311° |
| 2026-05-07 21:11 | 26.07000 | -80.05395 | 5999 ft | 273 kts | 311° |
| 2026-05-07 21:11 | 26.08268 | -80.06963 | 6000 ft | 274 kts | 311° |
| 2026-05-07 21:11 | 26.10819 | -80.10118 | 6000 ft | 275 kts | 311° |
| 2026-05-07 21:12 | 26.12097 | -80.11700 | 5998 ft | 274 kts | 311° |
| 2026-05-07 21:12 | 26.13370 | -80.13277 | 5999 ft | 273 kts | 310° |
| 2026-05-07 21:12 | 26.14429 | -80.15025 | 6001 ft | 272 kts | 294° |
| 2026-05-07 21:12 | 26.14971 | -80.16997 | 5996 ft | 270 kts | 277° |
| 2026-05-07 21:13 | 26.15042 | -80.19086 | 6000 ft | 271 kts | 270° |
| 2026-05-07 21:13 | 26.15042 | -80.21171 | 6000 ft | 270 kts | 270° |
| 2026-05-07 21:13 | 26.15048 | -80.23252 | 5776 ft | 267 kts | 270° |
| 2026-05-07 21:13 | 26.15056 | -80.25283 | 5652 ft | 258 kts | 270° |
| 2026-05-07 21:14 | 26.15075 | -80.27250 | 5529 ft | 250 kts | 270° |
| 2026-05-07 21:14 | 26.15097 | -80.29148 | 5408 ft | 241 kts | 270° |
| 2026-05-07 21:14 | 26.15115 | -80.30975 | 5286 ft | 232 kts | 270° |
| 2026-05-07 21:14 | 26.15133 | -80.32734 | 5164 ft | 223 kts | 271° |
| 2026-05-07 21:15 | 26.15149 | -80.34421 | 5038 ft | 214 kts | 270° |
| 2026-05-07 21:15 | 26.15140 | -80.36039 | 4892 ft | 204 kts | 263° |
| 2026-05-07 21:15 | 26.14574 | -80.37421 | 4746 ft | 196 kts | 226° |
| 2026-05-07 21:15 | 26.13393 | -80.38106 | 4466 ft | 197 kts | 188° |
| 2026-05-07 21:16 | 26.12006 | -80.38050 | 4175 ft | 202 kts | 175° |
| 2026-05-07 21:16 | 26.10735 | -80.37520 | 3991 ft | 199 kts | 141° |
| 2026-05-07 21:16 | 26.09849 | -80.36356 | 3705 ft | 199 kts | 125° |
| 2026-05-07 21:16 | 26.09098 | -80.35055 | 3373 ft | 200 kts | 123° |
| 2026-05-07 21:17 | 26.08365 | -80.33746 | 3067 ft | 199 kts | 123° |
| 2026-05-07 21:17 | 26.07808 | -80.32335 | 2742 ft | 203 kts | 99° |
| 2026-05-07 21:17 | 26.07765 | -80.30766 | 2431 ft | 203 kts | 91° |
| 2026-05-07 21:17 | 26.07758 | -80.29206 | 2173 ft | 201 kts | 92° |
| 2026-05-07 21:18 | 26.07751 | -80.27686 | 1919 ft | 189 kts | 91° |
| 2026-05-07 21:18 | 26.07745 | -80.26280 | 1689 ft | 173 kts | 92° |
| 2026-05-07 21:18 | 26.07739 | -80.25019 | 1478 ft | 155 kts | 92° |
| 2026-05-07 21:18 | 26.07733 | -80.23846 | 1270 ft | 149 kts | 93° |
| 2026-05-07 21:19 | 26.07727 | -80.22711 | 1098 ft | 145 kts | 90° |
| 2026-05-07 21:19 | 26.07720 | -80.21596 | 907 ft | 144 kts | 93° |
| 2026-05-07 21:19 | 26.07712 | -80.20493 | 720 ft | 141 kts | 92° |
| 2026-05-07 21:19 | 26.07710 | -80.19424 | 554 ft | 136 kts | 93° |
| 2026-05-07 21:20 | 26.07707 | -80.18369 | 398 ft | 137 kts | 92° |
| 2026-05-07 21:20 | 26.07709 | -80.17322 | 215 ft | 135 kts | 96° |
| 2026-05-07 21:20 | 26.07696 | -80.16292 | 34 ft | 128 kts | 94° |
| 2026-05-07 21:20 | 26.07687 | -80.15424 | 16 ft | 91 kts | 90° |
| 2026-05-07 21:21 | 26.07682 | -80.14906 | 18 ft | 49 kts | 91° |
| 2026-05-07 21:21 | 26.07642 | -80.14628 | 19 ft | 24 kts | 116° |
| 2026-05-07 21:21 | 26.07571 | -80.14520 | 17 ft | 12 kts | 154° |
| 2026-05-07 21:21 | 26.07506 | -80.14521 | 16 ft | 10 kts | 216° |
| 2026-05-07 21:22 | 26.07487 | -80.14606 | 16 ft | 13 kts | 271° |
| 2026-05-07 21:22 | 26.07488 | -80.14717 | 16 ft | 14 kts | 270° |
| 2026-05-07 21:22 | 26.07445 | -80.14814 | 16 ft | 16 kts | 223° |
| 2026-05-07 21:22 | 26.07357 | -80.14854 | 16 ft | 13 kts | 174° |
| 2026-05-07 21:23 | 26.07257 | -80.14854 | 16 ft | 16 kts | 181° |
| 2026-05-07 21:23 | 26.07136 | -80.14855 | 16 ft | 18 kts | 179° |
| 2026-05-07 21:23 | 26.07031 | -80.14800 | 17 ft | 18 kts | 136° |
| 2026-05-07 21:23 | 26.06940 | -80.14706 | 18 ft | 14 kts | 139° |
| 2026-05-07 21:24 | 26.06888 | -80.14658 | 16 ft | 5 kts | 140° |
| 2026-05-07 21:24 | 26.06860 | -80.14631 | 17 ft | 7 kts | 137° |
| 2026-05-07 21:24 | 26.06830 | -80.14584 | 16 ft | 4 kts | 86° |
| 2026-05-07 21:24 | 26.06860 | -80.14565 | 16 ft | 6 kts | 24° |
| 2026-05-07 21:25 | 26.06877 | -80.14556 | 16 ft | 1 kts | 23° |
| 2026-05-07 21:25 | 26.06881 | -80.14554 | 16 ft | 0 kts | 23° |